Time;durP1;ratioP1;P1;durP2;ratioP2;P2;SDS_P1;SDS_P2;PMS_P1;PMS_P2;Temp;Humidity;BMP_temperature;BMP_pressure;BME280_temperature;BME280_humidity;BME280_pressure;Samples;Min_cycle;Max_cycle;Signal;HPM_P1;HPM_P2
2022/07/25 00:01:14;;;;;;;15.30;10.52;;;;;;;25.15;69.69;97381.31;5070043;28;20101;-82
2022/07/25 00:03:40;;;;;;;17.17;10.10;;;;;;;25.15;70.27;97386.78;5062082;28;20173;-83
2022/07/25 00:06:06;;;;;;;13.02;10.27;;;;;;;25.19;70.13;97379.03;5041908;28;20136;-83
2022/07/25 00:08:31;;;;;;;16.38;10.40;;;;;;;25.10;69.81;97380.19;5057176;28;20519;-82
2022/07/25 00:10:57;;;;;;;12.23;10.15;;;;;;;25.01;70.52;97373.94;5053095;28;20496;-83
2022/07/25 00:13:22;;;;;;;15.40;10.70;;;;;;;25.05;69.88;97360.72;5063803;28;20472;-82
2022/07/25 00:15:48;;;;;;;12.35;10.13;;;;;;;24.92;70.95;97371.50;5053086;28;20405;-80
2022/07/25 00:18:14;;;;;;;18.83;11.45;;;;;;;24.95;71.18;97371.94;5065528;28;20399;-83
2022/07/25 00:20:39;;;;;;;14.30;9.90;;;;;;;24.97;71.48;97378.09;5065952;28;20036;-83
2022/07/25 00:23:05;;;;;;;18.10;10.50;;;;;;;24.98;70.69;97368.00;5052500;28;20037;-84
2022/07/25 00:25:31;;;;;;;15.90;10.73;;;;;;;24.96;71.04;97365.44;5055278;28;20500;-82
2022/07/25 00:27:57;;;;;;;18.42;10.52;;;;;;;24.89;72.01;97371.88;5051271;28;20059;-81
2022/07/25 00:30:23;;;;;;;15.20;10.13;;;;;;;24.79;72.07;97352.97;5069988;28;20063;-83
2022/07/25 00:32:48;;;;;;;12.18;10.02;;;;;;;24.74;71.88;97355.41;5049644;28;20120;-83
2022/07/25 00:35:14;;;;;;;14.55;10.07;;;;;;;24.72;72.53;97354.75;5069740;28;20078;-82
2022/07/25 00:37:39;;;;;;;16.55;9.52;;;;;;;24.74;72.29;97341.72;5037871;28;20021;-82
2022/07/25 00:40:05;;;;;;;16.80;10.45;;;;;;;24.76;72.57;97356.91;5035087;28;20055;-82
2022/07/25 00:42:31;;;;;;;11.65;9.75;;;;;;;24.70;73.08;97343.97;5052963;28;20423;-82
2022/07/25 00:44:58;;;;;;;11.90;9.35;;;;;;;24.64;73.31;97347.47;5044735;28;20033;-82
2022/07/25 00:47:24;;;;;;;12.68;10.25;;;;;;;24.56;73.79;97341.25;5053199;28;20020;-82
2022/07/25 00:49:50;;;;;;;14.80;10.50;;;;;;;24.54;73.92;97354.28;5053148;28;20415;-82
2022/07/25 00:52:15;;;;;;;17.17;11.02;;;;;;;24.55;74.34;97361.44;5069850;28;20020;-82
2022/07/25 00:54:41;;;;;;;18.00;10.50;;;;;;;24.56;74.39;97360.38;5069545;28;20130;-83
2022/07/25 00:57:06;;;;;;;17.65;10.50;;;;;;;24.56;74.68;97361.25;5044154;28;20033;-83
2022/07/25 00:59:32;;;;;;;15.25;10.93;;;;;;;24.55;74.02;97362.28;5069665;28;20055;-83
2022/07/25 01:01:58;;;;;;;14.57;11.02;;;;;;;24.49;74.61;97360.28;5052613;28;20036;-83
2022/07/25 01:04:23;;;;;;;14.65;10.50;;;;;;;24.42;75.49;97363.97;5069411;28;20036;-82
2022/07/25 01:06:49;;;;;;;14.52;10.98;;;;;;;24.31;76.09;97357.06;5053640;28;20021;-83
2022/07/25 01:09:15;;;;;;;15.23;11.13;;;;;;;24.27;76.09;97359.31;5035092;28;20126;-83
2022/07/25 01:11:41;;;;;;;17.27;11.00;;;;;;;24.28;76.21;97368.34;5077968;28;20028;-82
2022/07/25 01:14:06;;;;;;;14.15;10.85;;;;;;;24.07;77.22;97355.34;5060886;28;20103;-83
2022/07/25 01:16:32;;;;;;;18.85;11.02;;;;;;;23.96;77.99;97357.69;5069484;28;20036;-81
2022/07/25 01:18:58;;;;;;;15.23;10.90;;;;;;;23.89;78.82;97360.28;5052832;28;20068;-80
2022/07/25 01:21:24;;;;;;;14.63;10.82;;;;;;;23.91;79.22;97355.47;5069572;28;20043;-83
2022/07/25 01:23:50;;;;;;;12.15;10.18;;;;;;;23.90;78.97;97361.16;5052403;28;20111;-82
2022/07/25 01:26:15;;;;;;;14.48;10.65;;;;;;;23.91;78.85;97352.75;5060916;28;20044;-82
2022/07/25 01:28:41;;;;;;;11.73;9.90;;;;;;;23.85;79.12;97348.03;5049311;28;20044;-82
2022/07/25 01:31:06;;;;;;;12.10;10.25;;;;;;;23.81;78.89;97341.22;5067479;28;20488;-82
2022/07/25 01:33:32;;;;;;;16.90;10.40;;;;;;;23.82;78.39;97344.78;5060128;28;20107;-83
2022/07/25 01:35:58;;;;;;;11.98;9.52;;;;;;;23.85;77.97;97361.69;5052369;28;20084;-83
2022/07/25 01:38:23;;;;;;;17.60;9.82;;;;;;;23.74;78.39;97353.91;5055949;28;20025;-83
2022/07/25 01:40:49;;;;;;;13.68;10.35;;;;;;;23.67;78.69;97350.22;5056064;28;20052;-82
2022/07/25 01:43:14;;;;;;;14.57;10.10;;;;;;;23.64;79.60;97358.75;5072632;28;20458;-83
2022/07/25 01:45:40;;;;;;;12.63;9.73;;;;;;;23.61;80.07;97353.66;5073019;28;20546;-83
2022/07/25 01:48:06;;;;;;;18.90;12.23;;;;;;;23.56;81.31;97351.47;5055672;28;20025;-82
2022/07/25 01:50:31;;;;;;;16.85;11.00;;;;;;;23.59;81.63;97359.31;5060490;28;20453;-82
2022/07/25 01:52:57;;;;;;;18.42;11.93;;;;;;;23.44;82.57;97341.16;5048201;28;20035;-81
2022/07/25 01:55:22;;;;;;;19.75;12.50;;;;;;;23.39;83.31;97344.41;5054566;28;20036;-83
2022/07/25 01:57:48;;;;;;;15.75;12.25;;;;;;;23.37;83.82;97345.59;5049925;28;20032;-82
2022/07/25 02:00:14;;;;;;;16.90;13.70;;;;;;;23.40;84.20;97348.84;5059249;28;20055;-82
2022/07/25 02:02:41;;;;;;;18.15;12.48;;;;;;;23.31;84.11;97351.78;5072337;28;20029;-83
2022/07/25 02:05:08;;;;;;;14.02;12.10;;;;;;;23.25;84.91;97347.03;5064151;28;20032;-82
2022/07/25 02:07:34;;;;;;;15.07;11.45;;;;;;;23.30;84.57;97340.00;5060135;28;20024;-83
2022/07/25 02:09:59;;;;;;;15.15;12.13;;;;;;;23.32;84.06;97348.03;5042931;28;20174;-82
2022/07/25 02:12:25;;;;;;;22.50;12.10;;;;;;;23.37;84.20;97356.53;5055812;28;20036;-81
2022/07/25 02:14:51;;;;;;;16.73;12.50;;;;;;;23.35;84.53;97353.94;5055658;28;20031;-82
2022/07/25 02:17:16;;;;;;;15.02;12.00;;;;;;;23.37;84.24;97356.53;5047160;28;20020;-83
2022/07/25 02:19:43;;;;;;;15.90;11.48;;;;;;;23.31;84.37;97357.22;5068294;28;20404;-82
2022/07/25 02:22:09;;;;;;;15.63;11.90;;;;;;;23.31;84.45;97352.63;5043557;28;20024;-82
2022/07/25 02:24:35;;;;;;;16.80;11.18;;;;;;;23.23;84.37;97345.31;5055291;28;20567;-82
2022/07/25 02:27:02;;;;;;;16.58;11.70;;;;;;;23.26;84.81;97354.19;5072375;28;20032;-84
2022/07/25 02:29:28;;;;;;;15.55;11.52;;;;;;;23.26;84.78;97354.19;5038905;28;20484;-83
2022/07/25 02:31:53;;;;;;;14.75;11.27;;;;;;;23.21;85.28;97350.13;5072252;28;20111;-81
2022/07/25 02:34:19;;;;;;;15.70;11.52;;;;;;;23.20;85.47;97351.13;5071971;28;20422;-83
2022/07/25 02:36:44;;;;;;;14.48;11.48;;;;;;;23.31;85.65;97354.50;5055425;28;20021;-83
2022/07/25 02:39:10;;;;;;;16.10;12.32;;;;;;;23.36;85.64;97352.94;5039091;28;20119;-83
2022/07/25 02:41:36;;;;;;;18.65;12.07;;;;;;;23.30;86.14;97350.06;5054346;28;20032;-82
2022/07/25 02:44:02;;;;;;;17.27;12.75;;;;;;;23.20;86.96;97353.88;5065460;28;20037;-81
2022/07/25 02:46:27;;;;;;;44.17;19.27;;;;;;;23.20;87.40;97351.13;5061610;28;20513;-81
2022/07/25 02:48:53;;;;;;;37.47;15.88;;;;;;;23.13;86.99;97333.75;5072766;28;20036;-81
2022/07/25 02:51:18;;;;;;;18.63;11.95;;;;;;;23.19;86.74;97349.44;5071585;28;20373;-80
2022/07/25 02:53:44;;;;;;;20.52;12.48;;;;;;;23.20;86.94;97356.59;5071506;28;20402;-81
2022/07/25 02:56:10;;;;;;;16.70;11.80;;;;;;;23.12;87.52;97356.66;5071425;28;20021;-82
2022/07/25 02:58:35;;;;;;;19.90;12.35;;;;;;;23.14;87.46;97351.84;5071155;28;20060;-81
2022/07/25 03:01:01;;;;;;;18.33;13.23;;;;;;;23.23;87.35;97367.16;5054421;28;20127;-83
2022/07/25 03:03:26;;;;;;;22.02;12.73;;;;;;;23.11;87.66;97360.41;5037866;28;20024;-82
2022/07/25 03:05:52;;;;;;;21.20;13.48;;;;;;;23.10;88.03;97363.31;5071116;28;20024;-83
2022/07/25 03:08:18;;;;;;;19.50;12.68;;;;;;;23.13;88.35;97371.97;5049770;28;20078;-80
2022/07/25 03:10:43;;;;;;;16.95;12.65;;;;;;;23.13;88.71;97362.97;5046003;28;20029;-81
2022/07/25 03:13:09;;;;;;;16.42;12.65;;;;;;;23.08;88.38;97363.47;5039779;28;20412;-82
2022/07/25 03:15:34;;;;;;;14.13;10.75;;;;;;;23.02;86.38;97363.34;5052670;28;20107;-83
2022/07/25 03:18:00;;;;;;;15.27;11.10;;;;;;;22.96;86.46;97364.91;5054516;28;20029;-81
2022/07/25 03:20:25;;;;;;;20.10;10.93;;;;;;;22.89;87.65;97373.94;5054167;28;20472;-81
2022/07/25 03:22:51;;;;;;;18.15;11.40;;;;;;;22.90;87.99;97373.78;5070559;28;20032;-82
2022/07/25 03:25:17;;;;;;;14.27;11.13;;;;;;;22.92;88.22;97366.25;5043275;28;20024;-82
2022/07/25 03:27:42;;;;;;;19.65;11.90;;;;;;;22.80;89.65;97353.19;5053895;28;20013;-81
2022/07/25 03:30:08;;;;;;;17.60;12.10;;;;;;;22.91;89.66;97359.13;5070722;28;20035;-82
2022/07/25 03:32:34;;;;;;;16.70;11.50;;;;;;;22.90;89.88;97371.06;5053958;28;20020;-82
2022/07/25 03:34:59;;;;;;;20.52;12.70;;;;;;;22.81;90.52;97360.34;5070712;28;20035;-82
2022/07/25 03:37:25;;;;;;;18.65;12.77;;;;;;;22.87;89.93;97367.81;5050451;28;20493;-81
2022/07/25 03:39:50;;;;;;;15.60;11.38;;;;;;;22.91;85.83;97371.91;5067506;28;20052;-81
2022/07/25 03:42:16;;;;;;;20.05;12.77;;;;;;;22.90;89.45;97368.34;5067603;28;20115;-81
2022/07/25 03:44:41;;;;;;;21.52;13.13;;;;;;;22.89;89.99;97366.63;5070260;28;20036;-81
2022/07/25 03:47:07;;;;;;;19.08;13.13;;;;;;;22.78;91.12;97361.56;5059305;28;20086;-82
2022/07/25 03:49:33;;;;;;;26.40;15.05;;;;;;;22.93;91.16;97367.97;5051032;28;20025;-82
2022/07/25 03:51:58;;;;;;;24.77;12.73;;;;;;;22.80;91.89;97364.09;5064559;28;20036;-82
2022/07/25 03:54:24;;;;;;;16.77;13.63;;;;;;;22.65;92.77;97372.16;5069516;28;20445;-82
2022/07/25 03:56:50;;;;;;;21.40;14.98;;;;;;;22.62;93.64;97372.47;5047763;28;20028;-82
2022/07/25 03:59:18;;;;;;;24.48;17.08;;;;;;;22.47;94.79;97363.31;5047699;28;20025;-81
2022/07/25 04:01:45;;;;;;;22.08;13.60;;;;;;;22.41;95.08;97375.75;5041173;28;20500;-82
2022/07/25 04:04:11;;;;;;;26.42;14.90;;;;;;;22.34;95.67;97373.88;5053198;28;20024;-80
2022/07/25 04:06:38;;;;;;;23.88;14.85;;;;;;;22.34;96.30;97379.34;5069811;28;20031;-81
2022/07/25 04:09:04;;;;;;;26.08;18.08;;;;;;;22.25;97.15;97380.38;5070026;28;20024;-82
2022/07/25 04:11:30;;;;;;;24.10;14.20;;;;;;;22.33;96.38;97375.78;5045367;28;20110;-79
2022/07/25 04:13:56;;;;;;;32.28;22.80;;;;;;;22.29;96.96;97379.00;5035833;28;20082;-80
2022/07/25 04:16:23;;;;;;;25.25;15.60;;;;;;;22.35;96.64;97375.59;5069749;28;20025;-82
2022/07/25 04:18:49;;;;;;;28.80;15.43;;;;;;;22.33;96.75;97370.34;5070067;28;20028;-82
2022/07/25 04:21:15;;;;;;;20.00;14.73;;;;;;;22.42;96.51;97374.75;5070262;28;20036;-81
2022/07/25 04:23:41;;;;;;;26.20;14.75;;;;;;;22.44;96.56;97383.59;5052868;28;20527;-84
2022/07/25 04:26:06;;;;;;;21.15;15.40;;;;;;;22.45;96.71;97382.56;5053201;28;20021;-82
2022/07/25 04:28:32;;;;;;;23.45;15.00;;;;;;;22.43;96.57;97367.38;5044572;28;20030;-82
2022/07/25 04:30:57;;;;;;;26.10;16.20;;;;;;;22.52;96.06;97366.34;5069044;28;20508;-83
2022/07/25 04:33:23;;;;;;;23.38;15.55;;;;;;;22.65;95.27;97377.59;5072911;28;20077;-83
2022/07/25 04:35:49;;;;;;;24.33;15.63;;;;;;;22.62;95.28;97378.78;5069925;28;20108;-83
2022/07/25 04:38:15;;;;;;;30.15;16.92;;;;;;;22.83;94.59;97377.38;5052909;28;20398;-83
2022/07/25 04:40:40;;;;;;;30.45;16.98;;;;;;;23.95;86.86;97384.16;5069839;28;20465;-83
2022/07/25 04:43:07;;;;;;;21.17;14.00;;;;;;;24.93;79.48;97374.03;5066203;28;20029;-84
2022/07/25 04:45:33;;;;;;;30.88;15.45;;;;;;;24.69;78.97;97371.53;5045607;28;20029;-84
2022/07/25 04:47:59;;;;;;;23.85;14.50;;;;;;;24.41;80.07;97382.25;5050450;28;20539;-83
2022/07/25 04:50:25;;;;;;;22.08;14.32;;;;;;;24.20;80.66;97374.75;5067592;28;20044;-83
2022/07/25 04:52:51;;;;;;;23.55;15.18;;;;;;;23.94;81.35;97373.41;5053180;28;20037;-83
2022/07/25 04:55:17;;;;;;;18.88;13.80;;;;;;;23.97;81.41;97378.50;5056850;28;20056;-83
2022/07/25 04:57:42;;;;;;;22.58;13.02;;;;;;;23.99;81.70;97380.03;5063029;28;20496;-83
2022/07/25 05:00:10;;;;;;;23.00;13.63;;;;;;;24.04;81.99;97372.13;5052491;28;20045;-83
2022/07/25 05:02:36;;;;;;;24.15;13.43;;;;;;;24.15;81.57;97382.66;5069166;28;20020;-84
2022/07/25 05:05:01;;;;;;;24.25;13.85;;;;;;;24.26;80.58;97370.44;5053590;28;20036;-83
2022/07/25 05:07:27;;;;;;;24.00;17.17;;;;;;;24.40;81.05;97369.59;5074943;28;20108;-81
2022/07/25 05:09:53;;;;;;;29.27;16.65;;;;;;;24.62;79.40;97370.59;5054307;28;20043;-81
2022/07/25 05:12:19;;;;;;;21.20;14.57;;;;;;;24.97;77.72;97380.84;5056623;28;20037;-83
2022/07/25 05:14:44;;;;;;;31.45;16.42;;;;;;;24.72;77.37;97366.56;5064224;28;20060;-85
2022/07/25 05:17:10;;;;;;;31.20;18.70;;;;;;;24.92;77.72;97377.81;5050774;28;20033;-80
2022/07/25 05:19:35;;;;;;;23.40;16.13;;;;;;;24.80;76.55;97368.34;5064576;28;20070;-83
2022/07/25 05:22:01;;;;;;;23.92;15.55;;;;;;;25.42;73.29;97357.84;5056209;28;20029;-80
2022/07/25 05:24:27;;;;;;;35.20;15.88;;;;;;;26.61;69.31;97368.16;5048118;28;20028;-79
2022/07/25 05:26:52;;;;;;;28.27;15.15;;;;;;;27.67;65.46;97373.22;5064337;28;20558;-80
2022/07/25 05:29:18;;;;;;;31.13;16.45;;;;;;;29.32;59.82;97363.97;5064411;28;20028;-82
2022/07/25 05:31:44;;;;;;;25.92;17.27;;;;;;;30.80;54.83;97356.06;5072672;28;20031;-83
2022/07/25 05:34:10;;;;;;;22.13;14.43;;;;;;;31.80;51.48;97364.97;5064036;28;20033;-83
2022/07/25 05:36:35;;;;;;;21.00;15.60;;;;;;;32.04;49.89;97362.13;5069705;28;20064;-81
2022/07/25 05:39:01;;;;;;;37.67;14.35;;;;;;;31.71;50.37;97364.47;5072385;28;20032;-82
2022/07/25 05:41:26;;;;;;;25.30;15.13;;;;;;;32.09;49.84;97364.16;5054341;28;20060;-82
2022/07/25 05:43:52;;;;;;;21.92;12.82;;;;;;;33.32;47.02;97353.97;5064469;28;20025;-82
2022/07/25 05:46:18;;;;;;;22.05;14.15;;;;;;;34.32;44.40;97332.19;5055269;28;20032;-82
2022/07/25 05:48:43;;;;;;;19.35;13.18;;;;;;;34.95;42.51;97336.63;5052265;28;20025;-83
2022/07/25 05:51:09;;;;;;;17.30;13.10;;;;;;;35.86;40.67;97339.59;5070892;28;20326;-83
2022/07/25 05:53:35;;;;;;;18.13;13.05;;;;;;;36.37;39.59;97334.59;5069457;28;20025;-82
2022/07/25 05:56:01;;;;;;;16.88;12.75;;;;;;;37.49;37.96;97327.97;5072181;28;20039;-84
2022/07/25 05:58:27;;;;;;;18.73;12.38;;;;;;;38.40;35.85;97317.97;5047266;28;20100;-84
2022/07/25 06:00:52;;;;;;;23.70;12.52;;;;;;;38.12;36.30;97326.88;5042285;28;20045;-84
2022/07/25 06:03:18;;;;;;;22.25;12.52;;;;;;;38.21;35.67;97316.81;5054168;28;20086;-85
2022/07/25 06:05:45;;;;;;;14.52;11.40;;;;;;;37.96;36.05;97321.22;5071942;28;20033;-82
2022/07/25 06:08:12;;;;;;;20.02;13.30;;;;;;;38.16;35.66;97325.16;5066334;28;20036;-85
2022/07/25 06:10:38;;;;;;;15.95;11.32;;;;;;;39.23;34.66;97310.16;5055448;28;20173;-83
2022/07/25 06:13:03;;;;;;;15.95;9.73;;;;;;;40.24;32.48;97313.38;5071674;28;20111;-83
2022/07/25 06:15:29;;;;;;;13.82;10.60;;;;;;;40.53;32.01;97316.31;5072023;28;20020;-84
2022/07/25 06:17:55;;;;;;;15.25;10.70;;;;;;;40.59;31.79;97323.56;5053984;28;20189;-84
2022/07/25 06:20:20;;;;;;;15.98;12.45;;;;;;;40.83;31.63;97316.06;5071703;28;20485;-85
2022/07/25 06:22:46;;;;;;;40.58;15.07;;;;;;;41.80;30.17;97313.97;5072999;28;20029;-84
2022/07/25 06:25:12;;;;;;;15.07;10.10;;;;;;;41.32;29.47;97298.19;5054828;28;20040;-83
2022/07/25 06:27:37;;;;;;;16.67;9.65;;;;;;;41.28;29.73;97305.56;5053282;28;20037;-84
2022/07/25 06:30:04;;;;;;;17.40;11.02;;;;;;;41.23;30.05;97305.59;5071746;28;20047;-84
2022/07/25 06:32:30;;;;;;;15.77;10.05;;;;;;;41.05;30.19;97308.03;5071047;28;20032;-83
2022/07/25 06:34:55;;;;;;;22.35;9.55;;;;;;;41.04;29.58;97297.91;5071515;28;20032;-83
2022/07/25 06:37:21;;;;;;;17.45;9.50;;;;;;;41.87;28.76;97300.38;5071189;28;20117;-84
2022/07/25 06:39:47;;;;;;;22.40;9.98;;;;;;;41.29;28.70;97295.97;5053956;28;20033;-84
2022/07/25 06:42:12;;;;;;;28.75;9.68;;;;;;;41.16;28.63;97293.88;5053166;28;20492;-86
2022/07/25 06:44:38;;;;;;;28.38;11.05;;;;;;;41.72;28.45;97292.09;5051883;28;20032;-86
2022/07/25 06:47:04;;;;;;;26.98;10.35;;;;;;;41.03;28.60;97303.84;5067201;28;20502;-87
2022/07/25 06:49:30;;;;;;;20.05;11.43;;;;;;;40.09;29.68;97305.06;5054055;28;20042;-87
2022/07/25 06:51:55;;;;;;;18.58;8.60;;;;;;;40.98;27.53;97290.69;5042946;28;20028;-86
2022/07/25 06:54:21;;;;;;;12.73;8.38;;;;;;;40.24;28.64;97301.38;5052084;28;20144;-86
2022/07/25 06:56:47;;;;;;;10.85;8.38;;;;;;;39.59;28.58;97283.72;5054536;28;20024;-86
2022/07/25 06:59:12;;;;;;;14.57;8.77;;;;;;;39.16;29.37;97292.78;5054616;28;20111;-86
2022/07/25 07:01:38;;;;;;;11.07;8.10;;;;;;;40.08;28.93;97298.63;5053589;28;20040;-87
2022/07/25 07:04:04;;;;;;;10.98;8.27;;;;;;;39.49;29.12;97306.16;5049317;28;20089;-88
2022/07/25 07:06:30;;;;;;;18.08;8.40;;;;;;;40.97;27.55;97289.03;5049062;28;20024;-88
2022/07/25 07:08:56;;;;;;;27.38;9.38;;;;;;;39.93;28.81;97283.88;5048956;28;20039;-82
2022/07/25 07:11:21;;;;;;;16.42;7.80;;;;;;;40.69;27.73;97291.78;5071845;28;20025;-81
2022/07/25 07:13:47;;;;;;;10.88;8.05;;;;;;;41.05;27.97;97296.78;5070701;28;20073;-81
2022/07/25 07:16:12;;;;;;;10.77;8.10;;;;;;;41.51;27.45;97299.13;5065636;28;20118;-81
2022/07/25 07:18:38;;;;;;;15.65;9.00;;;;;;;41.40;27.64;97297.59;5034550;28;20071;-81
2022/07/25 07:21:04;;;;;;;28.55;9.30;;;;;;;41.25;27.56;97295.75;5059458;28;20031;-81
2022/07/25 07:23:30;;;;;;;19.95;8.95;;;;;;;42.32;26.33;97292.47;5049374;28;20025;-80
2022/07/25 07:25:56;;;;;;;18.73;8.10;;;;;;;41.53;27.24;97291.25;5060932;28;20886;-80
2022/07/25 07:28:21;;;;;;;13.75;7.72;;;;;;;41.87;27.27;97299.56;5042424;28;20036;-80
2022/07/25 07:30:47;;;;;;;12.38;9.55;;;;;;;42.93;25.83;97295.13;5049016;28;20028;-80
2022/07/25 07:33:13;;;;;;;14.25;7.85;;;;;;;42.64;25.86;97298.19;5062944;28;20027;-81
2022/07/25 07:35:39;;;;;;;11.70;7.65;;;;;;;41.94;27.00;97289.59;5057646;28;20025;-80
2022/07/25 07:38:05;;;;;;;20.20;8.18;;;;;;;42.35;26.46;97300.28;5060879;28;20056;-80
2022/07/25 07:40:31;;;;;;;19.92;7.82;;;;;;;42.06;26.48;97287.19;5065824;28;20025;-80
2022/07/25 07:42:59;;;;;;;10.95;7.43;;;;;;;40.90;27.51;97288.50;5068153;28;20025;-80
2022/07/25 07:45:25;;;;;;;9.85;7.63;;;;;;;42.08;26.40;97298.13;5061723;28;20429;-80
2022/07/25 07:47:53;;;;;;;15.15;9.23;;;;;;;40.83;27.52;97292.75;5067241;28;20178;-82
2022/07/25 07:50:24;;;;;;;12.85;7.65;;;;;;;41.90;26.71;97290.53;5070343;28;20109;-80
2022/07/25 07:52:50;;;;;;;8.37;7.47;;;;;;;43.31;25.04;97287.41;5052905;28;20020;-79
2022/07/25 07:58:00;;;;;;;18.55;7.63;;;;;;;43.07;25.04;97290.41;5068102;28;20039;-80
2022/07/25 08:00:29;;;;;;;12.82;8.02;;;;;;;42.95;25.35;97292.81;5058769;28;20041;-81
2022/07/25 08:02:56;;;;;;;17.55;8.80;;;;;;;43.27;25.03;97311.72;5045809;28;20406;-80
2022/07/25 08:05:27;;;;;;;13.50;7.50;;;;;;;43.43;24.70;97293.41;5059457;28;20460;-80
2022/07/25 08:08:11;;;;;;;9.50;6.63;;;;;;;43.41;24.40;97292.88;5077884;28;20052;-81
2022/07/25 08:10:40;;;;;;;13.52;7.68;;;;;;;43.44;24.56;97292.25;5063379;28;20040;-80
2022/07/25 08:13:15;;;;;;;11.75;9.27;;;;;;;42.67;25.30;97294.75;5062102;28;20051;-79
2022/07/25 08:15:41;;;;;;;13.15;8.52;;;;;;;43.44;24.36;97292.25;5058419;28;20091;-80
2022/07/25 08:18:07;;;;;;;14.85;8.27;;;;;;;44.70;23.03;97289.50;5052781;28;20496;-80
2022/07/25 08:20:33;;;;;;;12.07;8.20;;;;;;;44.32;23.81;97288.97;5052649;28;20032;-80
2022/07/25 08:22:58;;;;;;;8.68;7.00;;;;;;;41.78;25.45;97282.50;5051724;28;20121;-82
2022/07/25 08:25:24;;;;;;;20.48;13.45;;;;;;;42.56;25.29;97281.94;5068427;28;20384;-80
2022/07/25 08:27:50;;;;;;;9.88;8.80;;;;;;;42.15;25.19;97279.72;5058185;28;20028;-79
2022/07/25 08:30:16;;;;;;;10.35;7.78;;;;;;;42.93;24.50;97281.03;5059422;28;20052;-80
2022/07/25 08:32:52;;;;;;;9.23;7.22;;;;;;;42.25;24.96;97280.75;5059195;28;20028;-81
2022/07/25 08:35:19;;;;;;;9.52;7.28;;;;;;;42.88;24.74;97282.00;5056415;28;20108;-81
2022/07/25 08:37:48;;;;;;;13.75;7.90;;;;;;;42.44;24.83;97262.72;5065168;28;20040;-81
2022/07/25 08:40:15;;;;;;;16.45;7.72;;;;;;;42.36;24.76;97265.41;5044208;28;20032;-81
2022/07/25 08:42:41;;;;;;;10.73;6.78;;;;;;;43.47;23.57;97269.09;5058905;28;20039;-81
2022/07/25 08:45:08;;;;;;;17.60;6.97;;;;;;;43.13;23.67;97270.25;5068514;28;20028;-80
2022/07/25 08:47:35;;;;;;;12.35;6.75;;;;;;;42.52;24.33;97263.97;5069028;28;20111;-81
2022/07/25 08:50:06;;;;;;;11.07;7.28;;;;;;;42.03;25.36;97270.91;5069106;28;20029;-82
2022/07/25 08:52:34;;;;;;;;;;;;;;;43.44;23.33;97273.34;5041172;28;20072;-81
2022/07/25 08:55:09;;;;;;;10.80;7.18;;;;;;;43.15;23.12;97267.16;5048838;28;20397;-80
2022/07/25 08:57:36;;;;;;;8.88;7.50;;;;;;;42.04;24.85;97264.16;5049245;28;20396;-80
2022/07/25 09:00:06;;;;;;;10.95;7.57;;;;;;;42.40;23.48;97255.19;5059544;28;20061;-82
2022/07/25 09:02:31;;;;;;;8.63;6.80;;;;;;;42.78;23.39;97255.97;5052629;28;20028;-81
2022/07/25 09:04:58;;;;;;;7.65;6.88;;;;;;;43.82;22.71;97259.06;5052232;28;20021;-80
2022/07/25 09:07:35;;;;;;;10.32;7.55;;;;;;;44.14;22.61;97254.09;5051288;28;20504;-80
2022/07/25 09:10:30;;;;;;;10.73;7.65;;;;;;;44.27;22.34;97260.03;5069020;28;20108;-82
2022/07/25 09:13:09;;;;;;;9.23;6.55;;;;;;;45.31;21.50;97239.88;5038740;28;20045;-82
2022/07/25 09:15:43;;;;;;;7.57;6.32;;;;;;;46.26;20.69;97248.31;5046995;28;20024;-82
2022/07/25 09:18:13;;;;;;;27.63;8.07;;;;;;;46.38;20.23;97247.63;5070477;28;20024;-82
2022/07/25 09:20:43;;;;;;;9.80;7.25;;;;;;;44.65;21.98;97233.13;5069161;28;20469;-82
2022/07/25 09:23:29;;;;;;;8.80;7.28;;;;;;;45.38;21.86;97252.34;5068992;28;20403;-81
2022/07/25 09:26:09;;;;;;;8.25;7.18;;;;;;;46.06;21.09;97240.44;5057023;28;20120;-82
2022/07/25 09:28:43;;;;;;;8.63;7.83;;;;;;;46.28;20.14;97237.47;5068804;28;20035;-83
2022/07/25 09:31:09;;;;;;;9.05;7.18;;;;;;;45.23;20.98;97236.63;5069227;28;20050;-80
2022/07/25 09:33:44;;;;;;;9.68;7.15;;;;;;;45.81;20.65;97238.38;5074025;28;20543;-81
2022/07/25 09:36:11;;;;;;;8.27;6.95;;;;;;;46.19;20.23;97232.97;5069223;28;20024;-81
2022/07/25 09:38:36;;;;;;;12.27;6.90;;;;;;;46.52;20.37;97247.50;5050415;28;20087;-81
2022/07/25 09:41:02;;;;;;;9.05;6.70;;;;;;;46.14;21.38;97253.81;5054615;28;20562;-80
2022/07/25 09:43:41;;;;;;;7.85;7.05;;;;;;;43.54;22.77;97230.03;5066259;28;20059;-80
2022/07/25 09:46:08;;;;;;;9.70;6.63;;;;;;;44.78;22.00;97237.88;5063419;28;20029;-81
2022/07/25 09:48:35;;;;;;;7.80;7.00;;;;;;;45.22;21.73;97229.34;5083022;28;20055;-83
2022/07/25 09:51:01;;;;;;;11.23;7.38;;;;;;;45.04;21.45;97235.25;5062835;28;20476;-81
2022/07/25 09:53:26;;;;;;;9.05;8.05;;;;;;;42.77;24.03;97238.25;5047572;28;20036;-83
2022/07/25 09:55:53;;;;;;;10.73;8.65;;;;;;;40.70;25.50;97226.97;5041202;28;20044;-81
2022/07/25 09:58:19;;;;;;;13.13;7.80;;;;;;;41.09;25.65;97235.28;5088046;28;20020;-81
2022/07/25 10:00:45;;;;;;;9.35;7.13;;;;;;;42.10;24.74;97234.81;5055008;28;20063;-81
2022/07/25 10:03:35;;;;;;;11.90;7.60;;;;;;;41.82;25.50;97234.94;5054876;28;20036;-81
2022/07/25 10:06:07;;;;;;;8.07;7.13;;;;;;;44.11;23.10;97242.59;5070974;28;20121;-81
2022/07/25 10:08:37;;;;;;;11.02;6.88;;;;;;;44.80;22.67;97235.53;5062641;28;20085;-81
2022/07/25 10:11:05;;;;;;;9.07;6.93;;;;;;;44.99;22.28;97233.38;5054946;28;20028;-82
2022/07/25 10:13:33;;;;;;;8.15;6.40;;;;;;;44.75;22.57;97230.03;5071569;28;20548;-82
2022/07/25 10:15:59;;;;;;;9.25;6.60;;;;;;;45.21;21.71;97219.19;5054495;28;20488;-80
2022/07/25 10:18:27;;;;;;;9.05;6.50;;;;;;;45.95;20.89;97219.28;5054380;28;20032;-81
2022/07/25 10:21:11;;;;;;;9.60;7.22;;;;;;;45.99;21.61;97234.44;5046725;28;20028;-82
2022/07/25 10:23:40;;;;;;;19.30;7.07;;;;;;;45.73;21.36;97225.91;5054506;28;20028;-81
2022/07/25 10:26:12;;;;;;;8.35;7.00;;;;;;;46.06;21.06;97229.13;5071404;28;20514;-81
2022/07/25 10:28:44;;;;;;;10.30;7.05;;;;;;;46.64;20.66;97233.50;5054724;28;20024;-82
2022/07/25 10:31:43;;;;;;;10.05;6.88;;;;;;;45.59;21.67;97236.50;5071604;28;20111;-81
2022/07/25 10:34:09;;;;;;;12.60;7.35;;;;;;;45.24;21.93;97231.81;5030625;28;20044;-81
2022/07/25 10:36:48;;;;;;;7.95;7.00;;;;;;;47.03;20.30;97218.25;5068037;28;20478;-82
2022/07/25 10:39:16;;;;;;;7.28;6.32;;;;;;;46.14;21.02;97208.50;5059854;28;20020;-82
2022/07/25 10:41:48;;;;;;;7.28;6.45;;;;;;;46.50;20.55;97211.03;5068698;28;20052;-81
2022/07/25 10:44:15;;;;;;;7.80;6.55;;;;;;;45.81;21.14;97210.09;5063202;28;20070;-81
2022/07/25 10:46:45;;;;;;;11.85;6.78;;;;;;;45.82;21.28;97211.78;5053883;28;20093;-81
2022/07/25 10:49:25;;;;;;;10.60;6.63;;;;;;;45.15;21.62;97203.53;5055121;28;20028;-81
2022/07/25 10:51:55;;;;;;;9.45;6.28;;;;;;;44.48;21.86;97193.47;5055200;28;20484;-80
2022/07/25 10:54:21;;;;;;;9.13;6.70;;;;;;;42.39;23.90;97200.06;5053145;28;20173;-81
2022/07/25 10:57:12;;;;;;;9.25;6.10;;;;;;;42.94;23.64;97192.63;5051936;28;20107;-81
2022/07/25 10:59:38;;;;;;;12.65;8.15;;;;;;;44.58;22.42;97199.69;5043753;28;20036;-87
2022/07/25 11:02:06;;;;;;;15.25;7.50;;;;;;;45.12;21.53;97190.06;5070946;28;20356;-86
2022/07/25 11:04:32;;;;;;;8.15;6.95;;;;;;;46.17;20.38;97196.53;5054933;28;20111;-86
2022/07/25 11:07:10;;;;;;;7.53;6.82;;;;;;;44.26;21.84;97185.00;5044022;28;20031;-86
2022/07/25 11:09:36;;;;;;;12.75;7.18;;;;;;;42.71;23.65;97182.34;5050092;28;20511;-88
2022/07/25 11:12:02;;;;;;;10.88;6.40;;;;;;;40.84;24.49;97177.41;5046020;28;20459;-88
2022/07/25 11:14:38;;;;;;;15.20;6.75;;;;;;;39.24;26.38;97175.47;5055480;28;20039;-87
2022/07/25 11:17:18;;;;;;;9.48;6.63;;;;;;;37.95;27.49;97170.59;5048497;28;20128;-88
2022/07/25 11:20:03;;;;;;;9.63;6.45;;;;;;;38.30;27.94;97172.56;5053379;28;20029;-87
2022/07/25 11:22:30;;;;;;;18.90;7.70;;;;;;;39.40;26.96;97176.25;5050045;28;20028;-87
2022/07/25 11:24:57;;;;;;;7.05;6.10;;;;;;;40.49;24.23;97155.28;5050408;28;20025;-87